Terminal Aerodrome Forecast
Issued by NWS

Home | Current Version | Previous Version | Text Only | Print | Product List | Glossary On
Versions: 1 2 3 4 5 6 7 8 9 10 11 12 13 14 15 16 17 18 19 20
234
FTUS43 KDVN 241014 AAA
TAFCID
TAF AMD
KCID 241014Z 2410/2506 34005KT P6SM BKN008 OVC015
     FM241400 36010KT P6SM BKN020
     FM241700 01012G20KT P6SM VCSH BKN035
     FM250000 01007KT P6SM BKN050=

USA.gov is the U.S. government's official web portal to all federal, state and local government web resources and services.